Time;durP1;ratioP1;P1;durP2;ratioP2;P2;SDS_P1;SDS_P2;PMS_P1;PMS_P2;Temp;Humidity;BMP_temperature;BMP_pressure;BME280_temperature;BME280_humidity;BME280_pressure;Samples;Min_cycle;Max_cycle;Signal;HPM_P1;HPM_P2
2023/03/28 00:01:55;;;;;;;12.43;5.63;;;;;;;13.98;68.02;100975.81;12927486;22;99036;-78
2023/03/28 00:07:00;;;;;;;13.25;6.30;;;;;;;13.87;68.48;100975.38;12927208;22;99651;-78
2023/03/28 00:12:05;;;;;;;;;;;;;;;13.74;70.49;100975.03;12914830;22;98923;-78
2023/03/28 00:17:11;;;;;;;13.03;6.53;;;;;;;13.95;67.97;100983.88;12927262;22;99290;-80
2023/03/28 00:22:15;;;;;;;10.27;4.75;;;;;;;13.97;68.24;100987.31;12927601;22;98948;-78
2023/03/28 00:27:19;;;;;;;12.20;5.38;;;;;;;13.90;68.44;100970.81;12929377;22;98997;-79
2023/03/28 00:32:23;;;;;;;13.77;6.00;;;;;;;13.79;69.02;100977.50;12929300;22;99056;-78
2023/03/28 00:37:30;;;;;;;11.10;4.97;;;;;;;13.63;69.86;100966.69;12928384;22;98919;-78
2023/03/28 00:42:43;;;;;;;10.10;4.85;;;;;;;13.68;69.23;100965.56;12929367;22;99050;-79
2023/03/28 00:47:53;;;;;;;10.10;4.47;;;;;;;13.78;67.79;100966.03;12929339;22;98986;-78
2023/03/28 00:53:26;;;;;;;13.88;5.30;;;;;;;13.65;68.83;100970.13;12919276;22;98912;-78
2023/03/28 00:58:52;;;;;;;10.60;4.80;;;;;;;13.73;68.67;100977.75;12929364;22;98906;-79
2023/03/28 04:16:56;;;;;;;6.28;3.65;;;;;;;13.09;63.06;100861.38;12804660;22;1419525;-80
2023/03/28 04:21:59;;;;;;;5.43;3.40;;;;;;;13.19;62.09;100864.53;12865993;22;96508;-80
2023/03/28 04:27:04;;;;;;;7.65;3.63;;;;;;;13.17;61.61;100867.22;12866291;22;96568;-80
2023/03/28 04:32:11;;;;;;;6.07;3.08;;;;;;;13.19;61.61;100864.53;12866230;22;96575;-80
2023/03/28 04:37:29;;;;;;;;;;;;;;;;;;;;;
2023/03/28 04:42:34;;;;;;;8.90;3.22;;;;;;;13.18;61.37;100866.31;12865800;22;96990;-80
2023/03/28 04:47:53;;;;;;;7.30;3.13;;;;;;;13.14;60.58;100875.28;12866375;22;96703;-80
2023/03/28 04:52:59;;;;;;;5.55;3.15;;;;;;;13.19;60.18;100880.38;12866547;22;96870;-80
2023/03/28 04:58:04;;;;;;;6.50;3.22;;;;;;;13.06;62.20;100874.72;12866004;22;97241;-80
2023/03/28 05:03:22;;;;;;;7.75;3.55;;;;;;;13.01;61.03;100883.75;12865491;22;96526;-80
2023/03/28 05:08:26;;;;;;;7.57;3.15;;;;;;;12.97;61.71;100879.50;12866146;22;96952;-80
2023/03/28 05:13:32;;;;;;;7.33;2.97;;;;;;;12.96;61.69;100883.94;12865349;22;96680;-80
2023/03/28 05:18:42;;;;;;;6.43;3.03;;;;;;;12.97;61.11;100888.28;12865034;22;96607;-80
2023/03/28 06:17:28;;;;;;;5.80;2.75;;;;;;;12.57;61.78;100933.81;12811361;22;96892;-80
2023/03/28 06:22:37;;;;;;;6.55;3.35;;;;;;;12.32;63.77;100953.25;12865179;22;97000;-80
2023/03/28 06:27:42;;;;;;;7.25;3.30;;;;;;;12.27;64.13;100958.66;12865679;22;96702;-79
2023/03/28 06:33:00;;;;;;;6.72;3.25;;;;;;;12.00;66.51;100969.31;12865474;22;96782;-79
2023/03/28 06:38:25;;;;;;;;;;;;;;;;;;;;;
2023/03/28 07:28:42;;;;;;;7.47;3.13;;;;;;;14.87;55.00;100993.91;12868028;22;96643;-81
2023/03/28 07:33:45;;;;;;;6.30;2.90;;;;;;;15.41;53.25;101007.31;12867655;22;96708;-80
2023/03/28 07:38:50;;;;;;;5.97;3.38;;;;;;;16.15;51.51;101005.44;12867621;22;96605;-81
2023/03/28 07:44:18;;;;;;;;;;;;;;;;;;;;;
2023/03/28 07:49:22;;;;;;;;;;;;;;;17.49;49.09;101011.53;12861143;22;97120;-81
2023/03/28 07:54:55;;;;;;;5.10;3.30;;;;;;;17.94;47.81;101014.25;12867430;22;96651;-79
2023/03/28 07:59:59;;;;;;;4.40;2.83;;;;;;;18.05;46.73;101012.72;12867105;22;96529;-79
2023/03/28 08:05:02;;;;;;;;;;;;;;;18.84;44.02;101013.28;12867696;22;96652;-79
2023/03/28 08:10:10;;;;;;;7.22;3.60;;;;;;;19.45;43.81;101015.66;12867592;22;97046;-79
2023/03/28 08:15:17;;;;;;;5.93;3.10;;;;;;;20.51;42.16;101010.31;12855728;22;96691;-79
2023/03/28 08:20:22;;;;;;;5.60;3.50;;;;;;;20.94;41.20;101009.03;12866963;22;96960;-79
2023/03/28 08:25:27;;;;;;;5.22;3.10;;;;;;;21.32;39.77;100999.19;12838539;22;96784;-79
2023/03/28 08:30:37;;;;;;;5.57;3.20;;;;;;;21.31;39.59;100993.94;12803457;22;96653;-80
2023/03/28 08:35:40;;;;;;;6.45;3.45;;;;;;;22.39;37.68;101000.97;12803316;22;96679;-79
2023/03/28 08:40:51;;;;;;;6.37;3.57;;;;;;;22.17;36.99;100993.72;12803161;22;96855;-80
2023/03/28 08:46:00;;;;;;;5.50;3.65;;;;;;;22.56;35.99;100989.78;12803263;22;96648;-80
2023/03/28 08:51:34;;;;;;;5.25;3.70;;;;;;;22.72;34.68;100992.13;12803390;22;96560;-80
2023/03/28 08:56:47;;;;;;;6.97;4.47;;;;;;;22.12;35.01;100995.91;12802999;22;96528;-80
2023/03/28 09:02:21;;;;;;;9.82;5.40;;;;;;;22.69;34.15;100984.34;12803093;22;96607;-79
2023/03/28 09:07:48;;;;;;;;;;;;;;;;;;;;;
2023/03/28 09:13:12;;;;;;;7.30;3.90;;;;;;;22.81;32.86;100995.00;12795656;22;96816;-80
2023/03/28 09:18:41;;;;;;;6.72;3.58;;;;;;;23.34;32.23;100982.66;12802957;22;96611;-80
2023/03/28 09:24:08;;;;;;;4.25;2.65;;;;;;;23.07;31.31;100991.13;12808713;22;96877;-80
2023/03/28 09:29:26;;;;;;;;;;;;;;;;;;;;;
2023/03/28 09:34:39;;;;;;;5.65;3.28;;;;;;;23.92;30.48;100973.41;12855986;22;97129;-80
2023/03/28 09:39:51;;;;;;;6.63;3.22;;;;;;;23.85;31.02;100967.69;12866658;22;96934;-80
2023/03/28 09:45:11;;;;;;;4.05;3.10;;;;;;;24.71;29.87;100960.28;12866146;22;96997;-80
2023/03/28 09:50:21;;;;;;;4.40;3.00;;;;;;;24.97;28.85;100958.00;12866635;22;96618;-80
2023/03/28 09:55:32;;;;;;;5.13;2.45;;;;;;;24.30;29.15;100960.31;12863038;22;96612;-80
2023/03/28 10:00:41;;;;;;;3.97;2.47;;;;;;;23.65;29.55;100941.59;12865963;22;96649;-80
2023/03/28 10:05:57;;;;;;;5.53;3.00;;;;;;;24.11;29.54;100942.16;12862899;22;96883;-80
2023/03/28 10:11:07;;;;;;;4.13;2.60;;;;;;;23.79;28.68;100941.31;12865323;22;96557;-80
2023/03/28 10:16:13;;;;;;;5.22;2.75;;;;;;;24.38;29.03;100939.84;12866157;22;96542;-80
2023/03/28 10:21:27;;;;;;;5.25;2.83;;;;;;;24.23;28.94;100932.19;12864689;22;96688;-80
2023/03/28 10:26:31;;;;;;;3.90;2.43;;;;;;;24.62;28.59;100928.78;12865597;22;96577;-80
2023/03/28 10:31:56;;;;;;;3.88;2.42;;;;;;;25.15;28.18;100916.00;12865717;22;96607;-80
2023/03/28 10:37:05;;;;;;;4.07;2.33;;;;;;;24.54;28.19;100926.75;12864125;22;96560;-81
2023/03/28 10:42:10;;;;;;;4.35;2.53;;;;;;;25.20;28.04;100917.31;12865579;22;96591;-80
2023/03/28 10:47:32;;;;;;;4.15;2.58;;;;;;;26.44;26.76;100917.38;12867503;22;96793;-80
2023/03/28 10:52:48;;;;;;;4.45;2.47;;;;;;;26.70;26.42;100920.28;12868027;22;97072;-80
2023/03/28 10:58:04;;;;;;;4.95;2.60;;;;;;;27.01;26.22;100909.06;12867995;22;97193;-80
2023/03/28 11:03:20;;;;;;;4.47;2.20;;;;;;;27.09;25.53;100908.38;12867983;22;96687;-80
2023/03/28 11:08:48;;;;;;;3.85;2.22;;;;;;;27.05;25.05;100906.97;12867275;22;96808;-80
2023/03/28 11:42:16;;;;;;;3.67;2.30;;;;;;;29.13;23.60;100866.44;12844010;22;97221;-80
2023/03/28 11:47:27;;;;;;;4.78;2.40;;;;;;;28.31;23.84;100868.84;12864113;22;96474;-80
2023/03/28 11:52:37;;;;;;;4.13;2.47;;;;;;;28.57;23.80;100853.44;12864983;22;96497;-80
2023/03/28 11:57:54;;;;;;;4.03;2.47;;;;;;;28.83;23.11;100856.97;12865180;22;96757;-81
2023/03/28 12:03:12;;;;;;;4.10;2.60;;;;;;;29.33;22.92;100851.56;12862422;22;97334;-80
2023/03/28 12:08:26;;;;;;;3.92;2.30;;;;;;;29.36;22.99;100848.53;12864818;22;96862;-80
2023/03/28 13:15:59;;;;;;;4.18;2.50;;;;;;;29.01;24.78;100768.31;12851880;22;97194;-80
2023/03/28 13:21:06;;;;;;;3.67;2.30;;;;;;;29.30;23.90;100764.28;12862282;22;96721;-80
2023/03/28 13:26:11;;;;;;;3.83;2.30;;;;;;;30.32;23.65;100754.56;12864114;22;96637;-80
2023/03/28 13:31:24;;;;;;;4.25;2.83;;;;;;;29.68;23.67;100747.34;12864184;22;96485;-80
2023/03/28 13:36:29;;;;;;;4.78;2.75;;;;;;;30.23;23.69;100742.84;12862640;22;96606;-80
2023/03/28 13:41:36;;;;;;;6.63;2.90;;;;;;;30.65;23.22;100737.94;12861564;22;96652;-81
2023/03/28 13:46:45;;;;;;;3.00;2.15;;;;;;;30.84;24.35;100725.81;12863488;22;96639;-80
2023/03/28 13:51:57;;;;;;;3.63;2.42;;;;;;;30.28;24.70;100721.50;12863893;22;96652;-80
2023/03/28 13:57:04;;;;;;;4.60;2.50;;;;;;;30.91;24.22;100708.59;12863759;22;96488;-80
2023/03/28 14:02:17;;;;;;;3.70;2.40;;;;;;;29.35;25.29;100700.38;12862550;22;96607;-80
2023/03/28 14:07:29;;;;;;;5.83;2.83;;;;;;;29.02;26.73;100696.81;12863750;22;96830;-80
2023/03/28 14:12:33;;;;;;;4.20;2.70;;;;;;;28.61;25.86;100688.75;12864723;22;96662;-80
2023/03/28 14:17:39;;;;;;;3.55;2.20;;;;;;;29.10;27.17;100696.00;12862712;22;96693;-80
2023/03/28 14:22:54;;;;;;;4.82;2.35;;;;;;;29.31;25.68;100682.78;12863388;22;96709;-80
2023/03/28 14:28:09;;;;;;;4.13;1.60;;;;;;;28.92;24.05;100685.31;12862081;22;96518;-80
2023/03/28 14:33:20;;;;;;;2.03;1.50;;;;;;;28.62;24.34;100675.03;12863055;22;96597;-80
2023/03/28 14:38:38;;;;;;;2.50;1.42;;;;;;;28.17;24.43;100669.09;12862951;22;96552;-80
2023/03/28 14:43:46;;;;;;;4.20;1.52;;;;;;;28.13;24.61;100676.69;12863042;22;96464;-80
2023/03/28 14:48:52;;;;;;;3.58;1.20;;;;;;;28.33;25.14;100669.22;12862311;22;96737;-81
2023/03/28 14:54:03;;;;;;;2.92;1.23;;;;;;;28.21;24.05;100665.06;12859956;22;96689;-80
2023/03/28 14:59:10;;;;;;;2.92;1.40;;;;;;;28.36;24.43;100657.22;12860991;22;97646;-81
2023/03/28 15:04:21;;;;;;;1.45;1.05;;;;;;;28.05;23.99;100656.88;12863237;22;96764;-80
2023/03/28 15:09:30;;;;;;;3.28;1.60;;;;;;;28.06;24.03;100651.28;12862714;22;96461;-81
2023/03/28 15:14:39;;;;;;;2.28;1.33;;;;;;;27.85;23.23;100659.00;12859917;22;96555;-81
2023/03/28 15:19:48;;;;;;;4.47;2.15;;;;;;;27.51;25.41;100647.25;12860420;22;96878;-80
2023/03/28 15:24:52;;;;;;;4.55;2.00;;;;;;;27.43;25.29;100649.91;12862023;22;96487;-81
2023/03/28 15:29:56;;;;;;;4.97;2.15;;;;;;;27.47;27.27;100648.59;12862747;22;97280;-80
2023/03/28 15:35:03;;;;;;;5.18;3.05;;;;;;;27.31;27.92;100647.63;12864719;22;96768;-81
2023/03/28 15:40:24;;;;;;;8.90;3.38;;;;;;;27.31;31.32;100650.31;12864868;22;96601;-81
2023/03/28 15:45:42;;;;;;;6.28;3.67;;;;;;;26.99;32.31;100654.41;12865019;22;97344;-81
2023/03/28 15:50:55;;;;;;;7.90;3.78;;;;;;;26.59;31.67;100655.91;12865216;22;96605;-81
2023/03/28 15:56:06;;;;;;;8.48;3.78;;;;;;;26.52;32.38;100671.00;12865923;22;96676;-80
2023/03/28 16:01:24;;;;;;;8.07;3.07;;;;;;;26.15;32.69;100665.66;12864820;22;96545;-80
2023/03/28 16:06:40;;;;;;;6.47;2.75;;;;;;;26.01;33.22;100660.75;12864843;22;96671;-81
2023/03/28 16:11:45;;;;;;;5.07;2.47;;;;;;;25.89;32.83;100652.00;12863552;22;96530;-80
2023/03/28 16:16:53;;;;;;;6.93;2.85;;;;;;;25.54;32.92;100653.63;12863988;22;96698;-81
2023/03/28 16:21:57;;;;;;;6.40;2.90;;;;;;;25.61;33.42;100646.66;12864678;22;96478;-80
2023/03/28 16:27:03;;;;;;;3.90;2.47;;;;;;;25.48;33.14;100654.22;12864533;22;96550;-80
2023/03/28 16:32:11;;;;;;;7.53;3.30;;;;;;;25.43;33.48;100649.25;12864530;22;96552;-81
2023/03/28 16:37:18;;;;;;;5.07;3.05;;;;;;;25.29;34.65;100662.34;12864157;22;96479;-82
2023/03/28 16:42:27;;;;;;;10.50;3.42;;;;;;;25.22;34.38;100666.63;12864398;22;96711;-81
2023/03/28 16:47:32;;;;;;;9.70;3.38;;;;;;;25.11;34.31;100674.84;12865139;22;96542;-81
2023/03/28 16:52:42;;;;;;;8.50;3.05;;;;;;;24.72;34.76;100663.19;12864394;22;96693;-80
2023/03/28 16:57:48;;;;;;;8.73;3.35;;;;;;;24.57;34.98;100661.88;12864563;22;96837;-81
2023/03/28 17:02:53;;;;;;;5.78;3.15;;;;;;;24.64;35.37;100668.41;12863129;22;96603;-80
2023/03/28 17:08:00;;;;;;;7.10;3.40;;;;;;;24.54;35.83;100667.56;12864211;22;96674;-80
2023/03/28 17:13:06;;;;;;;6.45;3.35;;;;;;;24.30;35.29;100667.94;12864334;22;96593;-81
2023/03/28 17:18:15;;;;;;;7.70;3.13;;;;;;;23.91;35.19;100666.06;12862645;22;96944;-81
2023/03/28 17:23:21;;;;;;;5.15;2.70;;;;;;;23.94;34.68;100676.56;12852867;22;96795;-81
2023/03/28 17:28:26;;;;;;;8.30;3.45;;;;;;;24.03;35.97;100685.66;12864012;22;96594;-81
2023/03/28 17:33:31;;;;;;;5.95;2.75;;;;;;;23.94;35.46;100678.41;12864132;22;97523;-81
2023/03/28 17:38:38;;;;;;;;;;;;;;;23.68;35.86;100686.88;12865313;22;96523;-81
2023/03/28 17:43:43;;;;;;;6.20;2.92;;;;;;;23.62;37.00;100690.13;12864166;22;97196;-81
2023/03/28 17:48:48;;;;;;;6.47;3.10;;;;;;;23.41;36.35;100688.38;12863828;22;97231;-81
2023/03/28 17:53:56;;;;;;;5.38;2.97;;;;;;;23.26;36.86;100700.44;12860707;22;96529;-81
2023/03/28 17:59:01;;;;;;;7.25;3.00;;;;;;;23.12;37.65;100695.38;12863501;22;96645;-81
2023/03/28 18:04:07;;;;;;;9.35;2.97;;;;;;;23.14;38.82;100690.75;12863587;22;96508;-81
2023/03/28 18:09:17;;;;;;;6.60;2.92;;;;;;;23.01;41.87;100703.50;12863657;22;96577;-81
2023/03/28 18:14:24;;;;;;;7.68;3.13;;;;;;;22.80;43.89;100703.44;12860704;22;96707;-81
2023/03/28 18:19:34;;;;;;;6.95;3.58;;;;;;;22.52;45.67;100710.19;12862817;22;96633;-80
2023/03/28 18:24:39;;;;;;;8.88;4.15;;;;;;;22.35;42.90;100701.84;12863286;22;96646;-81
2023/03/28 18:29:44;;;;;;;8.77;4.38;;;;;;;22.31;42.38;100706.59;12862394;22;96684;-81
2023/03/28 18:35:06;;;;;;;7.63;4.13;;;;;;;22.02;45.94;100707.22;12863223;22;97105;-81
2023/03/28 18:40:13;;;;;;;13.23;6.57;;;;;;;21.84;44.58;100716.69;12862709;22;96623;-81
2023/03/28 18:45:21;;;;;;;12.23;4.70;;;;;;;21.59;46.91;100723.09;12861673;22;96912;-81
2023/03/28 18:50:24;;;;;;;11.23;5.80;;;;;;;21.42;46.53;100715.50;12862632;22;96789;-81
2023/03/28 18:55:29;;;;;;;8.68;5.32;;;;;;;21.16;48.77;100720.19;12862686;22;96655;-81
2023/03/28 19:00:32;;;;;;;9.35;5.97;;;;;;;20.93;49.57;100726.38;12862495;22;96464;-81
2023/03/28 19:05:36;;;;;;;11.07;6.88;;;;;;;20.72;50.31;100730.66;12863451;22;96540;-81
2023/03/28 19:10:46;;;;;;;15.30;7.67;;;;;;;20.54;50.52;100739.16;12865684;22;96603;-81
2023/03/28 19:15:58;;;;;;;13.45;8.05;;;;;;;20.34;51.74;100745.97;12865069;22;97515;-81
2023/03/28 19:21:01;;;;;;;16.02;8.02;;;;;;;20.46;50.21;100746.88;12865799;22;96804;-81
2023/03/28 19:26:11;;;;;;;15.48;8.57;;;;;;;20.15;51.32;100750.88;12862138;22;96649;-80
2023/03/28 19:31:23;;;;;;;14.05;8.52;;;;;;;20.00;52.04;100752.81;12865191;22;96582;-81
2023/03/28 19:36:31;;;;;;;13.18;7.22;;;;;;;19.99;52.09;100759.13;12860896;22;96737;-81
2023/03/28 19:41:38;;;;;;;12.75;7.65;;;;;;;19.85;51.53;100759.22;12864820;22;96618;-80
2023/03/28 19:46:42;;;;;;;15.85;8.15;;;;;;;19.82;51.56;100764.75;12864912;22;96915;-81
2023/03/28 19:51:45;;;;;;;15.30;8.20;;;;;;;19.47;53.63;100760.16;12865727;22;96625;-81
2023/03/28 19:56:50;;;;;;;12.43;7.60;;;;;;;19.31;54.44;100765.63;12864786;22;96761;-81
2023/03/28 20:02:01;;;;;;;12.90;7.53;;;;;;;19.21;54.30;100777.91;12864717;22;96657;-81
2023/03/28 20:07:07;;;;;;;13.70;8.40;;;;;;;19.39;52.62;100781.97;12865323;22;96630;-80
2023/03/28 20:12:19;;;;;;;19.48;9.93;;;;;;;19.44;52.53;100779.06;12866281;22;96628;-80
2023/03/28 20:17:38;;;;;;;19.10;10.32;;;;;;;19.27;53.11;100788.16;12864546;22;96798;-80
2023/03/28 20:22:45;;;;;;;17.10;9.75;;;;;;;19.39;52.34;100798.00;12864176;22;96624;-81
2023/03/28 20:27:53;;;;;;;17.98;9.23;;;;;;;19.23;53.90;100802.66;12862747;22;97126;-81
2023/03/28 20:32:58;;;;;;;18.48;9.82;;;;;;;19.05;53.58;100796.72;12864579;22;96562;-80
2023/03/28 20:38:03;;;;;;;21.35;9.88;;;;;;;18.94;53.57;100801.03;12864869;22;96712;-80
2023/03/28 20:43:18;;;;;;;17.20;8.55;;;;;;;18.93;53.97;100818.00;12864255;22;96643;-81
2023/03/28 20:48:24;;;;;;;17.63;9.32;;;;;;;18.77;54.77;100825.28;12864358;22;96789;-81
2023/03/28 20:53:31;;;;;;;13.38;7.72;;;;;;;18.59;54.74;100834.47;12864570;22;96656;-81
2023/03/28 20:58:53;;;;;;;16.88;7.55;;;;;;;18.49;55.31;100844.00;12865073;22;96598;-80
2023/03/28 21:04:00;;;;;;;14.02;8.00;;;;;;;18.26;55.97;100856.06;12865732;22;96494;-80
2023/03/28 21:09:07;;;;;;;12.68;7.18;;;;;;;18.22;56.48;100856.31;12862467;22;96533;-81
2023/03/28 21:14:14;;;;;;;13.70;7.40;;;;;;;18.13;56.23;100855.94;12864510;22;96607;-80
2023/03/28 21:19:19;;;;;;;10.57;5.82;;;;;;;18.09;55.63;100848.22;12862366;22;96623;-80
2023/03/28 21:24:25;;;;;;;10.88;5.40;;;;;;;18.05;55.79;100858.22;12864216;22;96485;-81
2023/03/28 21:29:38;;;;;;;14.35;6.93;;;;;;;17.86;57.73;100862.94;12863787;22;96644;-80
2023/03/28 21:34:43;;;;;;;13.63;6.75;;;;;;;18.05;56.93;100858.22;12838617;22;96830;-81
2023/03/28 21:39:50;;;;;;;14.77;7.18;;;;;;;17.88;57.46;100862.84;12863317;22;96625;-81
2023/03/28 21:44:55;;;;;;;10.45;5.93;;;;;;;17.57;58.46;100862.94;12864421;22;96848;-82
2023/03/28 21:49:59;;;;;;;10.88;6.32;;;;;;;17.63;58.60;100873.22;12863919;22;96660;-83
2023/03/28 21:55:02;;;;;;;10.63;5.70;;;;;;;17.51;58.11;100871.28;12864911;22;96631;-81
2023/03/28 22:00:13;;;;;;;10.75;5.68;;;;;;;17.50;58.17;100865.09;12863587;22;96518;-80
2023/03/28 22:05:29;;;;;;;;;;;;;;;;;;;;;
2023/03/28 22:10:37;;;;;;;12.88;5.95;;;;;;;17.52;58.01;100839.25;12861472;22;96469;-80
2023/03/28 22:15:48;;;;;;;10.37;6.37;;;;;;;17.40;58.36;100826.63;12863260;22;96602;-79
2023/03/28 22:20:56;;;;;;;11.63;6.25;;;;;;;17.31;58.64;100816.50;12863391;22;96857;-82
2023/03/28 22:26:02;;;;;;;13.35;6.13;;;;;;;17.28;58.62;100811.38;12863828;22;96615;-81
2023/03/28 22:31:11;;;;;;;10.88;6.03;;;;;;;16.89;60.68;100806.56;12863414;22;96458;-82
2023/03/28 22:36:18;;;;;;;13.68;6.22;;;;;;;16.54;62.28;100797.06;12862750;22;96521;-81
2023/03/28 22:41:22;;;;;;;8.95;5.85;;;;;;;16.52;62.17;100814.88;12863546;22;96779;-83
2023/03/28 22:46:29;;;;;;;10.98;5.97;;;;;;;16.53;62.16;100843.13;12865363;22;97109;-82
2023/03/28 22:51:44;;;;;;;13.68;5.85;;;;;;;16.48;62.29;100845.19;12865315;22;96720;-82
2023/03/28 22:56:51;;;;;;;9.18;6.07;;;;;;;16.49;62.88;100843.41;12865160;22;96626;-82
2023/03/28 23:01:59;;;;;;;10.18;5.53;;;;;;;16.48;62.83;100828.41;12864133;22;96842;-82
2023/03/28 23:07:02;;;;;;;11.38;5.57;;;;;;;16.58;62.41;100830.50;12865091;22;97465;-83
2023/03/28 23:12:06;;;;;;;11.63;5.85;;;;;;;16.60;62.01;100817.94;12865443;22;96600;-83
2023/03/28 23:17:40;;;;;;;10.60;5.75;;;;;;;16.52;63.05;100816.66;12864734;22;96731;-81
